sensor_id;sensor_type;location;lat;lon;timestamp;pressure;altitude;pressure_sealevel;temperature;humidity
41703;BME280;861;48.808;9.006;2022-10-26T00:01:30;97109.94;;;14.54;83.70
41703;BME280;861;48.808;9.006;2022-10-26T00:03:56;97108.19;;;14.67;83.04
41703;BME280;861;48.808;9.006;2022-10-26T00:06:25;97109.75;;;14.68;83.73
41703;BME280;861;48.808;9.006;2022-10-26T00:08:56;97114.09;;;14.62;83.46
41703;BME280;861;48.808;9.006;2022-10-26T00:11:24;97114.38;;;14.75;83.65
41703;BME280;861;48.808;9.006;2022-10-26T00:13:51;97126.78;;;14.83;83.18
41703;BME280;861;48.808;9.006;2022-10-26T00:16:26;97120.19;;;14.77;83.18
41703;BME280;861;48.808;9.006;2022-10-26T00:20:05;97118.72;;;14.69;83.20
41703;BME280;861;48.808;9.006;2022-10-26T00:22:32;97111.00;;;14.64;83.80
41703;BME280;861;48.808;9.006;2022-10-26T00:24:58;97113.47;;;14.51;83.69
41703;BME280;861;48.808;9.006;2022-10-26T00:27:25;97104.47;;;14.51;85.06
41703;BME280;861;48.808;9.006;2022-10-26T00:29:51;97111.47;;;14.55;84.92
41703;BME280;861;48.808;9.006;2022-10-26T00:34:28;97120.41;;;14.26;86.07
41703;BME280;861;48.808;9.006;2022-10-26T00:36:54;97120.81;;;14.21;86.08
41703;BME280;861;48.808;9.006;2022-10-26T00:39:21;97113.81;;;14.16;86.28
41703;BME280;861;48.808;9.006;2022-10-26T00:45:59;97111.53;;;14.08;87.26
41703;BME280;861;48.808;9.006;2022-10-26T00:49:29;97112.47;;;13.94;88.38
41703;BME280;861;48.808;9.006;2022-10-26T00:51:55;97118.66;;;14.02;87.57
41703;BME280;861;48.808;9.006;2022-10-26T00:54:22;97124.50;;;14.04;88.76
41703;BME280;861;48.808;9.006;2022-10-26T00:57:13;97121.13;;;13.85;88.96
41703;BME280;861;48.808;9.006;2022-10-26T00:59:45;97116.22;;;14.11;87.92
41703;BME280;861;48.808;9.006;2022-10-26T01:02:12;97116.44;;;14.30;87.10
41703;BME280;861;48.808;9.006;2022-10-26T01:04:40;97128.19;;;14.31;87.43
41703;BME280;861;48.808;9.006;2022-10-26T01:07:08;97113.25;;;14.35;87.57
41703;BME280;861;48.808;9.006;2022-10-26T01:09:36;97110.84;;;14.41;86.20
41703;BME280;861;48.808;9.006;2022-10-26T01:12:03;97106.66;;;14.29;87.51
41703;BME280;861;48.808;9.006;2022-10-26T01:14:32;97098.50;;;14.22;88.23
41703;BME280;861;48.808;9.006;2022-10-26T01:17:18;97100.81;;;14.24;87.71
41703;BME280;861;48.808;9.006;2022-10-26T01:20:20;97097.69;;;14.29;86.38
41703;BME280;861;48.808;9.006;2022-10-26T01:23:24;97084.38;;;14.27;87.24
41703;BME280;861;48.808;9.006;2022-10-26T01:29:24;97084.72;;;14.33;88.37
41703;BME280;861;48.808;9.006;2022-10-26T01:32:29;97073.06;;;14.25;88.52
41703;BME280;861;48.808;9.006;2022-10-26T01:35:33;97084.75;;;14.29;87.26
41703;BME280;861;48.808;9.006;2022-10-26T01:38:41;97079.03;;;14.13;87.63
41703;BME280;861;48.808;9.006;2022-10-26T01:41:34;97065.25;;;14.20;86.75
41703;BME280;861;48.808;9.006;2022-10-26T01:44:35;97064.94;;;14.15;87.33
41703;BME280;861;48.808;9.006;2022-10-26T01:48:25;97073.59;;;14.47;85.89
41703;BME280;861;48.808;9.006;2022-10-26T01:50:57;97069.72;;;14.44;86.20
41703;BME280;861;48.808;9.006;2022-10-26T01:53:27;97074.25;;;14.58;85.84
41703;BME280;861;48.808;9.006;2022-10-26T01:56:54;97058.16;;;14.60;86.08
41703;BME280;861;48.808;9.006;2022-10-26T01:59:52;97057.56;;;14.75;85.84
41703;BME280;861;48.808;9.006;2022-10-26T02:14:10;97053.88;;;15.15;82.27
41703;BME280;861;48.808;9.006;2022-10-26T02:16:55;97060.44;;;14.95;83.91
41703;BME280;861;48.808;9.006;2022-10-26T02:19:46;97064.31;;;14.67;86.30
41703;BME280;861;48.808;9.006;2022-10-26T02:22:40;97076.44;;;14.70;85.42
41703;BME280;861;48.808;9.006;2022-10-26T02:25:29;97071.63;;;14.47;86.07
41703;BME280;861;48.808;9.006;2022-10-26T02:28:09;97070.09;;;14.46;86.66
41703;BME280;861;48.808;9.006;2022-10-26T02:33:03;97075.31;;;14.34;86.64
41703;BME280;861;48.808;9.006;2022-10-26T02:35:38;97085.16;;;14.28;87.95
41703;BME280;861;48.808;9.006;2022-10-26T02:38:12;97092.19;;;14.29;88.10
41703;BME280;861;48.808;9.006;2022-10-26T02:40:48;97095.25;;;14.34;88.26
41703;BME280;861;48.808;9.006;2022-10-26T02:44:31;97087.59;;;14.56;86.61
41703;BME280;861;48.808;9.006;2022-10-26T02:47:04;97077.34;;;14.60;85.95
41703;BME280;861;48.808;9.006;2022-10-26T02:49:31;97080.94;;;14.53;87.26
41703;BME280;861;48.808;9.006;2022-10-26T02:55:29;97084.56;;;14.06;88.90
41703;BME280;861;48.808;9.006;2022-10-26T02:58:09;97081.41;;;14.11;88.76
41703;BME280;861;48.808;9.006;2022-10-26T03:00:40;97087.94;;;14.21;87.90
41703;BME280;861;48.808;9.006;2022-10-26T03:03:08;97085.47;;;13.96;89.54
41703;BME280;861;48.808;9.006;2022-10-26T03:05:35;97095.06;;;13.74;90.50
41703;BME280;861;48.808;9.006;2022-10-26T03:08:08;97097.72;;;13.81;89.78
41703;BME280;861;48.808;9.006;2022-10-26T03:10:42;97102.34;;;13.91;89.38
41703;BME280;861;48.808;9.006;2022-10-26T03:13:12;97108.53;;;13.95;89.26
41703;BME280;861;48.808;9.006;2022-10-26T03:15:40;97112.03;;;13.99;87.98
41703;BME280;861;48.808;9.006;2022-10-26T03:18:07;97120.47;;;14.15;87.66
41703;BME280;861;48.808;9.006;2022-10-26T03:20:34;97119.28;;;14.20;86.96
41703;BME280;861;48.808;9.006;2022-10-26T03:25:16;97115.41;;;14.14;87.57
41703;BME280;861;48.808;9.006;2022-10-26T03:27:43;97110.72;;;14.11;88.02
41703;BME280;861;48.808;9.006;2022-10-26T03:30:10;97126.69;;;14.23;87.15
41703;BME280;861;48.808;9.006;2022-10-26T03:32:37;97118.91;;;14.18;87.79
41703;BME280;861;48.808;9.006;2022-10-26T03:35:04;97110.94;;;14.34;86.40
41703;BME280;861;48.808;9.006;2022-10-26T03:37:31;97108.34;;;14.53;85.27
41703;BME280;861;48.808;9.006;2022-10-26T03:39:57;97117.56;;;14.36;86.52
41703;BME280;861;48.808;9.006;2022-10-26T03:42:23;97110.06;;;14.40;86.08
41703;BME280;861;48.808;9.006;2022-10-26T03:44:49;97109.03;;;14.27;86.25
41703;BME280;861;48.808;9.006;2022-10-26T03:47:16;97112.22;;;14.19;86.74
41703;BME280;861;48.808;9.006;2022-10-26T03:49:43;97109.44;;;14.22;86.77
41703;BME280;861;48.808;9.006;2022-10-26T03:52:09;97103.56;;;14.24;86.98
41703;BME280;861;48.808;9.006;2022-10-26T03:54:35;97109.44;;;14.22;87.23
41703;BME280;861;48.808;9.006;2022-10-26T03:57:01;97105.13;;;14.25;87.48
41703;BME280;861;48.808;9.006;2022-10-26T03:59:27;97114.13;;;14.29;87.07
41703;BME280;861;48.808;9.006;2022-10-26T04:01:54;97109.03;;;14.27;87.28
41703;BME280;861;48.808;9.006;2022-10-26T04:04:20;97106.97;;;14.38;86.99
41703;BME280;861;48.808;9.006;2022-10-26T04:06:46;97091.22;;;14.46;86.33
41703;BME280;861;48.808;9.006;2022-10-26T04:09:13;97097.50;;;14.46;85.83
41703;BME280;861;48.808;9.006;2022-10-26T04:11:39;97094.00;;;14.42;85.52
41703;BME280;861;48.808;9.006;2022-10-26T04:14:05;97096.00;;;14.38;86.33
41703;BME280;861;48.808;9.006;2022-10-26T04:16:32;97098.50;;;14.22;87.83
41703;BME280;861;48.808;9.006;2022-10-26T04:18:58;97085.22;;;14.21;87.24
41703;BME280;861;48.808;9.006;2022-10-26T04:21:25;97091.75;;;14.34;86.91
41703;BME280;861;48.808;9.006;2022-10-26T04:23:52;97093.63;;;14.40;86.86
41703;BME280;861;48.808;9.006;2022-10-26T04:26:19;97091.34;;;14.35;87.70
41703;BME280;861;48.808;9.006;2022-10-26T04:28:45;97072.50;;;14.41;86.49
41703;BME280;861;48.808;9.006;2022-10-26T04:31:11;97073.19;;;14.48;86.67
41703;BME280;861;48.808;9.006;2022-10-26T04:35:03;97090.81;;;14.47;88.21
41703;BME280;861;48.808;9.006;2022-10-26T04:37:30;97096.94;;;14.58;87.11
41703;BME280;861;48.808;9.006;2022-10-26T04:39:56;97090.84;;;14.44;87.73
41703;BME280;861;48.808;9.006;2022-10-26T04:42:23;97085.97;;;14.25;88.17
41703;BME280;861;48.808;9.006;2022-10-26T04:44:49;97095.22;;;14.38;87.91
41703;BME280;861;48.808;9.006;2022-10-26T04:47:16;97087.34;;;14.43;89.09
41703;BME280;861;48.808;9.006;2022-10-26T04:51:56;97099.44;;;14.46;88.48
41703;BME280;861;48.808;9.006;2022-10-26T04:54:23;97083.47;;;14.37;89.70
41703;BME280;861;48.808;9.006;2022-10-26T04:56:51;97085.59;;;14.56;88.03
41703;BME280;861;48.808;9.006;2022-10-26T04:59:17;97082.88;;;14.56;87.30
41703;BME280;861;48.808;9.006;2022-10-26T05:01:43;97091.94;;;14.50;88.04
41703;BME280;861;48.808;9.006;2022-10-26T05:04:10;97098.41;;;14.66;87.13
41703;BME280;861;48.808;9.006;2022-10-26T05:06:36;97101.28;;;14.56;88.19
41703;BME280;861;48.808;9.006;2022-10-26T05:09:03;97093.19;;;14.75;86.64
41703;BME280;861;48.808;9.006;2022-10-26T05:11:29;97095.25;;;14.68;87.70
41703;BME280;861;48.808;9.006;2022-10-26T05:13:56;97099.63;;;14.65;88.30
41703;BME280;861;48.808;9.006;2022-10-26T05:16:23;97092.34;;;14.48;88.43
41703;BME280;861;48.808;9.006;2022-10-26T05:18:49;97097.38;;;14.53;87.89
41703;BME280;861;48.808;9.006;2022-10-26T05:21:16;97096.25;;;14.51;88.49
41703;BME280;861;48.808;9.006;2022-10-26T05:23:52;97102.25;;;14.39;89.31
41703;BME280;861;48.808;9.006;2022-10-26T05:26:24;97105.56;;;14.57;88.01
41703;BME280;861;48.808;9.006;2022-10-26T05:28:51;97113.13;;;14.79;86.33
41703;BME280;861;48.808;9.006;2022-10-26T05:31:20;97121.78;;;14.78;86.83
41703;BME280;861;48.808;9.006;2022-10-26T05:33:51;97124.34;;;14.92;85.79
41703;BME280;861;48.808;9.006;2022-10-26T05:36:18;97135.38;;;14.85;86.10
41703;BME280;861;48.808;9.006;2022-10-26T05:38:46;97129.59;;;14.79;86.21
41703;BME280;861;48.808;9.006;2022-10-26T05:42:20;97143.66;;;14.81;85.72
41703;BME280;861;48.808;9.006;2022-10-26T05:44:46;97137.19;;;14.65;86.31
41703;BME280;861;48.808;9.006;2022-10-26T05:47:13;97142.81;;;14.84;86.35
41703;BME280;861;48.808;9.006;2022-10-26T05:51:10;97134.03;;;14.66;86.52
41703;BME280;861;48.808;9.006;2022-10-26T05:53:38;97141.16;;;14.60;86.87
41703;BME280;861;48.808;9.006;2022-10-26T05:56:34;97130.63;;;14.59;87.10
41703;BME280;861;48.808;9.006;2022-10-26T05:59:11;97140.00;;;14.91;84.57
41703;BME280;861;48.808;9.006;2022-10-26T06:01:57;97155.41;;;14.82;85.50
41703;BME280;861;48.808;9.006;2022-10-26T06:04:37;97162.38;;;14.86;85.49
41703;BME280;861;48.808;9.006;2022-10-26T06:07:17;97158.41;;;14.91;85.13
41703;BME280;861;48.808;9.006;2022-10-26T06:09:48;97157.88;;;15.03;84.18
41703;BME280;861;48.808;9.006;2022-10-26T06:12:15;97173.09;;;14.74;86.20
41703;BME280;861;48.808;9.006;2022-10-26T06:14:42;97183.16;;;14.87;85.85
41703;BME280;861;48.808;9.006;2022-10-26T06:17:43;97188.00;;;14.73;86.46
41703;BME280;861;48.808;9.006;2022-10-26T06:21:08;97191.50;;;14.73;87.00
41703;BME280;861;48.808;9.006;2022-10-26T06:24:35;97199.28;;;15.12;84.21
41703;BME280;861;48.808;9.006;2022-10-26T06:27:44;97196.44;;;14.89;85.17
41703;BME280;861;48.808;9.006;2022-10-26T06:30:18;97195.69;;;14.85;86.03
41703;BME280;861;48.808;9.006;2022-10-26T06:32:50;97210.22;;;14.82;85.58
41703;BME280;861;48.808;9.006;2022-10-26T06:38:21;97197.22;;;14.89;86.33
41703;BME280;861;48.808;9.006;2022-10-26T06:40:54;97200.69;;;14.93;86.45
41703;BME280;861;48.808;9.006;2022-10-26T06:43:30;97212.31;;;15.04;85.24
41703;BME280;861;48.808;9.006;2022-10-26T06:46:45;97217.78;;;15.08;86.10
41703;BME280;861;48.808;9.006;2022-10-26T06:52:27;97223.28;;;15.04;86.63
41703;BME280;861;48.808;9.006;2022-10-26T06:55:00;97231.84;;;15.10;86.33
41703;BME280;861;48.808;9.006;2022-10-26T06:58:44;97230.69;;;15.07;85.68
41703;BME280;861;48.808;9.006;2022-10-26T07:01:12;97235.00;;;15.08;85.89
41703;BME280;861;48.808;9.006;2022-10-26T07:03:39;97229.22;;;14.99;86.58
41703;BME280;861;48.808;9.006;2022-10-26T07:06:07;97230.00;;;15.00;87.02
41703;BME280;861;48.808;9.006;2022-10-26T07:08:34;97228.34;;;15.09;87.14
41703;BME280;861;48.808;9.006;2022-10-26T07:11:00;97234.13;;;15.15;86.42
41703;BME280;861;48.808;9.006;2022-10-26T07:13:27;97247.94;;;15.08;87.67
41703;BME280;861;48.808;9.006;2022-10-26T07:15:53;97240.03;;;15.13;87.65
41703;BME280;861;48.808;9.006;2022-10-26T07:19:54;97245.44;;;15.20;87.61
41703;BME280;861;48.808;9.006;2022-10-26T07:22:22;97252.25;;;15.05;88.26
41703;BME280;861;48.808;9.006;2022-10-26T07:24:50;97253.81;;;15.06;88.48
41703;BME280;861;48.808;9.006;2022-10-26T07:27:18;97256.50;;;15.13;88.29
41703;BME280;861;48.808;9.006;2022-10-26T07:29:44;97260.28;;;15.23;86.80
41703;BME280;861;48.808;9.006;2022-10-26T07:32:11;97258.66;;;15.29;86.79
41703;BME280;861;48.808;9.006;2022-10-26T07:34:37;97266.19;;;15.21;87.52
41703;BME280;861;48.808;9.006;2022-10-26T07:37:04;97268.16;;;15.21;87.41
41703;BME280;861;48.808;9.006;2022-10-26T07:39:30;97276.91;;;15.09;89.10
41703;BME280;861;48.808;9.006;2022-10-26T07:41:59;97274.59;;;15.07;89.89
41703;BME280;861;48.808;9.006;2022-10-26T07:45:33;97288.97;;;15.18;90.01
41703;BME280;861;48.808;9.006;2022-10-26T07:48:02;97281.75;;;15.31;88.22
41703;BME280;861;48.808;9.006;2022-10-26T07:50:28;97285.47;;;15.14;90.11
41703;BME280;861;48.808;9.006;2022-10-26T07:52:56;97291.31;;;15.16;90.22
41703;BME280;861;48.808;9.006;2022-10-26T07:55:23;97285.19;;;15.43;88.15
41703;BME280;861;48.808;9.006;2022-10-26T07:57:49;97280.56;;;15.32;88.26
41703;BME280;861;48.808;9.006;2022-10-26T08:00:15;97282.75;;;15.48;88.27
41703;BME280;861;48.808;9.006;2022-10-26T08:02:41;97281.69;;;15.39;87.82
41703;BME280;861;48.808;9.006;2022-10-26T08:05:08;97283.28;;;15.36;88.49
41703;BME280;861;48.808;9.006;2022-10-26T08:07:41;97279.69;;;15.43;86.99
41703;BME280;861;48.808;9.006;2022-10-26T08:10:10;97281.34;;;15.33;89.58
41703;BME280;861;48.808;9.006;2022-10-26T08:12:38;97277.00;;;15.39;87.65
41703;BME280;861;48.808;9.006;2022-10-26T08:15:06;97275.00;;;15.70;85.51
41703;BME280;861;48.808;9.006;2022-10-26T08:17:34;97276.16;;;15.72;85.56
41703;BME280;861;48.808;9.006;2022-10-26T08:20:01;97270.94;;;15.51;88.34
41703;BME280;861;48.808;9.006;2022-10-26T08:22:31;97280.84;;;15.45;89.21
41703;BME280;861;48.808;9.006;2022-10-26T08:24:57;97284.84;;;15.67;86.39
41703;BME280;861;48.808;9.006;2022-10-26T08:27:24;97277.09;;;15.62;86.94
41703;BME280;861;48.808;9.006;2022-10-26T08:29:51;97271.34;;;15.80;85.90
41703;BME280;861;48.808;9.006;2022-10-26T08:32:17;97281.63;;;15.76;86.94
41703;BME280;861;48.808;9.006;2022-10-26T08:34:43;97284.03;;;15.70;88.30
41703;BME280;861;48.808;9.006;2022-10-26T08:37:09;97283.63;;;15.72;87.20
41703;BME280;861;48.808;9.006;2022-10-26T08:39:36;97288.84;;;15.93;85.53
41703;BME280;861;48.808;9.006;2022-10-26T08:42:43;97293.03;;;16.01;85.86
41703;BME280;861;48.808;9.006;2022-10-26T08:45:39;97297.13;;;15.89;86.50
41703;BME280;861;48.808;9.006;2022-10-26T08:50:05;97311.31;;;16.11;86.98
41703;BME280;861;48.808;9.006;2022-10-26T08:53:11;97310.13;;;16.38;83.81
41703;BME280;861;48.808;9.006;2022-10-26T08:56:23;97319.00;;;16.49;83.00
41703;BME280;861;48.808;9.006;2022-10-26T09:01:56;97321.91;;;16.65;83.87
41703;BME280;861;48.808;9.006;2022-10-26T09:04:29;97329.91;;;16.79;82.25
41703;BME280;861;48.808;9.006;2022-10-26T09:07:24;97327.19;;;16.99;82.25
41703;BME280;861;48.808;9.006;2022-10-26T09:15:56;97335.13;;;17.59;80.89
41703;BME280;861;48.808;9.006;2022-10-26T09:18:47;97345.31;;;17.82;78.30
41703;BME280;861;48.808;9.006;2022-10-26T09:22:15;97340.78;;;17.72;78.78
41703;BME280;861;48.808;9.006;2022-10-26T09:24:53;97351.09;;;17.48;81.34
41703;BME280;861;48.808;9.006;2022-10-26T09:27:55;97352.56;;;17.53;80.30
41703;BME280;861;48.808;9.006;2022-10-26T09:30:26;97355.75;;;17.71;80.66
41703;BME280;861;48.808;9.006;2022-10-26T09:33:23;97360.88;;;18.08;78.05
41703;BME280;861;48.808;9.006;2022-10-26T09:36:02;97356.88;;;18.28;78.37
41703;BME280;861;48.808;9.006;2022-10-26T09:39:00;97361.53;;;18.51;76.11
41703;BME280;861;48.808;9.006;2022-10-26T09:41:47;97358.06;;;18.63;77.78
41703;BME280;861;48.808;9.006;2022-10-26T09:44:55;97361.88;;;18.85;74.92
41703;BME280;861;48.808;9.006;2022-10-26T09:47:38;97344.59;;;18.97;74.94
41703;BME280;861;48.808;9.006;2022-10-26T09:50:43;97363.75;;;18.72;77.42
41703;BME280;861;48.808;9.006;2022-10-26T09:53:13;97352.66;;;18.76;75.58
41703;BME280;861;48.808;9.006;2022-10-26T09:55:49;97361.63;;;18.80;75.47
41703;BME280;861;48.808;9.006;2022-10-26T09:58:53;97367.91;;;18.64;76.64
41703;BME280;861;48.808;9.006;2022-10-26T10:04:24;97374.13;;;19.00;74.61
41703;BME280;861;48.808;9.006;2022-10-26T10:07:16;97381.88;;;19.05;77.62
41703;BME280;861;48.808;9.006;2022-10-26T10:09:43;97375.84;;;19.10;76.20
41703;BME280;861;48.808;9.006;2022-10-26T10:12:20;97387.25;;;19.28;75.31
41703;BME280;861;48.808;9.006;2022-10-26T10:14:59;97378.22;;;19.24;75.53
41703;BME280;861;48.808;9.006;2022-10-26T10:17:26;97381.97;;;19.62;73.40
41703;BME280;861;48.808;9.006;2022-10-26T10:19:53;97390.69;;;19.90;73.81
41703;BME280;861;48.808;9.006;2022-10-26T10:22:24;97393.97;;;20.13;74.02
41703;BME280;861;48.808;9.006;2022-10-26T10:25:00;97393.25;;;20.38;73.06
41703;BME280;861;48.808;9.006;2022-10-26T10:27:30;97398.16;;;20.46;70.99
41703;BME280;861;48.808;9.006;2022-10-26T10:30:26;97396.28;;;20.56;69.61
41703;BME280;861;48.808;9.006;2022-10-26T10:33:33;97393.41;;;20.72;70.36
41703;BME280;861;48.808;9.006;2022-10-26T10:36:06;97398.38;;;20.89;68.44
41703;BME280;861;48.808;9.006;2022-10-26T10:38:42;97405.34;;;20.81;69.37
41703;BME280;861;48.808;9.006;2022-10-26T10:46:48;97406.09;;;20.57;70.12
41703;BME280;861;48.808;9.006;2022-10-26T10:49:25;97412.53;;;20.79;69.79
41703;BME280;861;48.808;9.006;2022-10-26T10:51:56;97416.00;;;21.08;69.95
41703;BME280;861;48.808;9.006;2022-10-26T10:54:31;97411.19;;;21.21;68.65
41703;BME280;861;48.808;9.006;2022-10-26T10:58:14;97426.84;;;21.02;68.86
41703;BME280;861;48.808;9.006;2022-10-26T11:00:48;97426.38;;;20.79;68.78
41703;BME280;861;48.808;9.006;2022-10-26T11:03:42;97423.72;;;20.75;69.30
41703;BME280;861;48.808;9.006;2022-10-26T11:06:29;97424.72;;;20.69;70.13
41703;BME280;861;48.808;9.006;2022-10-26T11:09:16;97424.72;;;20.69;70.09
41703;BME280;861;48.808;9.006;2022-10-26T11:12:27;97423.50;;;20.82;68.79
41703;BME280;861;48.808;9.006;2022-10-26T11:15:10;97426.97;;;21.11;69.12
41703;BME280;861;48.808;9.006;2022-10-26T11:18:13;97431.63;;;21.49;67.36
41703;BME280;861;48.808;9.006;2022-10-26T11:21:16;97429.63;;;21.62;65.37
41703;BME280;861;48.808;9.006;2022-10-26T11:27:28;97431.88;;;22.10;64.23
41703;BME280;861;48.808;9.006;2022-10-26T11:30:05;97427.94;;;22.20;63.83
41703;BME280;861;48.808;9.006;2022-10-26T11:33:10;97435.44;;;22.10;62.87
41703;BME280;861;48.808;9.006;2022-10-26T11:35:56;97432.66;;;22.10;65.69
41703;BME280;861;48.808;9.006;2022-10-26T11:42:13;97440.78;;;22.05;62.36
41703;BME280;861;48.808;9.006;2022-10-26T11:45:10;97441.94;;;21.95;63.00
41703;BME280;861;48.808;9.006;2022-10-26T11:48:22;97437.88;;;21.74;63.14
41703;BME280;861;48.808;9.006;2022-10-26T11:50:57;97449.78;;;21.62;63.95
41703;BME280;861;48.808;9.006;2022-10-26T11:53:38;97435.69;;;21.69;63.36
41703;BME280;861;48.808;9.006;2022-10-26T11:56:31;97446.28;;;21.49;63.92
41703;BME280;861;48.808;9.006;2022-10-26T11:59:13;97445.41;;;21.40;65.44
41703;BME280;861;48.808;9.006;2022-10-26T12:01:58;97442.09;;;21.32;65.34
41703;BME280;861;48.808;9.006;2022-10-26T12:04:37;97442.38;;;21.47;65.39
41703;BME280;861;48.808;9.006;2022-10-26T12:07:25;97443.25;;;21.56;66.14
41703;BME280;861;48.808;9.006;2022-10-26T12:09:58;97447.44;;;22.07;64.53
41703;BME280;861;48.808;9.006;2022-10-26T12:16:48;97446.44;;;22.44;63.05
41703;BME280;861;48.808;9.006;2022-10-26T12:22:22;97457.88;;;22.46;64.66
41703;BME280;861;48.808;9.006;2022-10-26T12:25:21;97455.94;;;22.34;63.89
41703;BME280;861;48.808;9.006;2022-10-26T12:27:49;97456.91;;;22.19;62.92
41703;BME280;861;48.808;9.006;2022-10-26T12:35:43;97456.97;;;22.28;64.90
41703;BME280;861;48.808;9.006;2022-10-26T12:41:22;97456.84;;;23.23;62.05
41703;BME280;861;48.808;9.006;2022-10-26T12:43:53;97459.13;;;23.64;58.11
41703;BME280;861;48.808;9.006;2022-10-26T12:46:38;97462.06;;;23.52;58.65
41703;BME280;861;48.808;9.006;2022-10-26T12:51:48;97461.78;;;23.59;60.52
41703;BME280;861;48.808;9.006;2022-10-26T12:54:42;97471.38;;;23.76;58.66
41703;BME280;861;48.808;9.006;2022-10-26T13:00:22;97479.78;;;23.45;61.16
41703;BME280;861;48.808;9.006;2022-10-26T13:03:29;97475.84;;;23.73;58.87
41703;BME280;861;48.808;9.006;2022-10-26T13:09:57;97487.72;;;23.65;57.93
41703;BME280;861;48.808;9.006;2022-10-26T13:12:36;97488.81;;;23.76;59.23
41703;BME280;861;48.808;9.006;2022-10-26T13:18:15;97494.84;;;23.75;58.05
41703;BME280;861;48.808;9.006;2022-10-26T13:21:13;97490.38;;;23.77;57.90
41703;BME280;861;48.808;9.006;2022-10-26T13:23:55;97490.91;;;24.03;56.45
41703;BME280;861;48.808;9.006;2022-10-26T13:26:32;97487.94;;;24.06;57.56
41703;BME280;861;48.808;9.006;2022-10-26T13:29:31;97484.38;;;24.24;57.97
41703;BME280;861;48.808;9.006;2022-10-26T13:32:20;97483.63;;;24.24;57.17
41703;BME280;861;48.808;9.006;2022-10-26T13:34:47;97495.94;;;23.95;59.63
41703;BME280;861;48.808;9.006;2022-10-26T13:37:30;97496.63;;;23.99;56.83
41703;BME280;861;48.808;9.006;2022-10-26T13:40:02;97496.16;;;24.01;57.09
41703;BME280;861;48.808;9.006;2022-10-26T13:42:45;97492.38;;;23.86;56.23
41703;BME280;861;48.808;9.006;2022-10-26T13:45:28;97495.16;;;23.77;56.59
41703;BME280;861;48.808;9.006;2022-10-26T13:50:21;97492.56;;;23.91;59.47
41703;BME280;861;48.808;9.006;2022-10-26T13:53:06;97502.50;;;24.10;56.68
41703;BME280;861;48.808;9.006;2022-10-26T13:55:54;97498.16;;;24.28;59.07
41703;BME280;861;48.808;9.006;2022-10-26T13:58:44;97495.34;;;24.37;57.36
41703;BME280;861;48.808;9.006;2022-10-26T14:01:18;97501.38;;;24.53;56.60
41703;BME280;861;48.808;9.006;2022-10-26T14:03:49;97503.84;;;24.60;55.74
41703;BME280;861;48.808;9.006;2022-10-26T14:09:03;97509.25;;;24.82;54.48
41703;BME280;861;48.808;9.006;2022-10-26T14:11:48;97514.22;;;24.69;57.78
41703;BME280;861;48.808;9.006;2022-10-26T14:14:27;97510.63;;;24.77;57.27
41703;BME280;861;48.808;9.006;2022-10-26T14:16:57;97521.59;;;24.90;54.86
41703;BME280;861;48.808;9.006;2022-10-26T14:19:29;97523.47;;;24.84;56.21
41703;BME280;861;48.808;9.006;2022-10-26T14:22:00;97525.31;;;24.96;52.89
41703;BME280;861;48.808;9.006;2022-10-26T14:24:34;97527.34;;;24.86;55.17
41703;BME280;861;48.808;9.006;2022-10-26T14:27:16;97523.97;;;24.73;54.71
41703;BME280;861;48.808;9.006;2022-10-26T14:29:44;97533.09;;;24.83;54.29
41703;BME280;861;48.808;9.006;2022-10-26T14:32:31;97543.00;;;24.75;52.87
41703;BME280;861;48.808;9.006;2022-10-26T14:34:59;97548.56;;;24.57;54.18
41703;BME280;861;48.808;9.006;2022-10-26T14:37:43;97541.91;;;24.54;53.47
41703;BME280;861;48.808;9.006;2022-10-26T14:40:19;97549.50;;;24.54;52.98
41703;BME280;861;48.808;9.006;2022-10-26T14:42:53;97553.06;;;24.36;54.02
41703;BME280;861;48.808;9.006;2022-10-26T14:45:36;97557.53;;;24.34;55.37
41703;BME280;861;48.808;9.006;2022-10-26T14:48:14;97558.78;;;24.51;53.03
41703;BME280;861;48.808;9.006;2022-10-26T14:51:14;97559.88;;;24.26;55.23
41703;BME280;861;48.808;9.006;2022-10-26T14:53:53;97556.13;;;24.11;55.00
41703;BME280;861;48.808;9.006;2022-10-26T14:56:37;97562.63;;;23.99;55.55
41703;BME280;861;48.808;9.006;2022-10-26T15:02:21;97564.53;;;23.71;55.50
41703;BME280;861;48.808;9.006;2022-10-26T15:05:14;97570.91;;;23.81;56.74
41703;BME280;861;48.808;9.006;2022-10-26T15:07:52;97563.56;;;23.65;55.63
41703;BME280;861;48.808;9.006;2022-10-26T15:10:53;97569.88;;;23.48;56.69
41703;BME280;861;48.808;9.006;2022-10-26T15:13:32;97578.31;;;23.35;56.50
41703;BME280;861;48.808;9.006;2022-10-26T15:16:23;97575.91;;;23.25;58.28
41703;BME280;861;48.808;9.006;2022-10-26T15:19:14;97580.00;;;23.11;57.86
41703;BME280;861;48.808;9.006;2022-10-26T15:21:50;97581.38;;;23.07;57.60
41703;BME280;861;48.808;9.006;2022-10-26T15:24:28;97577.56;;;22.92;57.88
41703;BME280;861;48.808;9.006;2022-10-26T15:26:58;97583.44;;;22.94;58.28
41703;BME280;861;48.808;9.006;2022-10-26T15:29:48;97590.09;;;22.75;57.44
41703;BME280;861;48.808;9.006;2022-10-26T15:32:31;97591.66;;;22.76;58.78
41703;BME280;861;48.808;9.006;2022-10-26T15:35:27;97593.00;;;22.71;58.71
41703;BME280;861;48.808;9.006;2022-10-26T15:37:58;97592.31;;;22.80;58.71
41703;BME280;861;48.808;9.006;2022-10-26T15:40:28;97593.59;;;22.66;59.20
41703;BME280;861;48.808;9.006;2022-10-26T15:42:59;97592.09;;;22.52;58.71
41703;BME280;861;48.808;9.006;2022-10-26T15:45:44;97598.25;;;22.35;59.71
41703;BME280;861;48.808;9.006;2022-10-26T15:48:30;97581.53;;;22.26;60.46
41703;BME280;861;48.808;9.006;2022-10-26T15:50:59;97591.94;;;22.22;60.95
41703;BME280;861;48.808;9.006;2022-10-26T15:53:26;97591.22;;;22.09;61.05
41703;BME280;861;48.808;9.006;2022-10-26T15:55:57;97594.22;;;22.02;61.97
41703;BME280;861;48.808;9.006;2022-10-26T15:58:26;97598.13;;;22.04;61.68
41703;BME280;861;48.808;9.006;2022-10-26T16:00:55;97606.25;;;21.86;62.54
41703;BME280;861;48.808;9.006;2022-10-26T16:03:25;97606.50;;;21.79;62.65
41703;BME280;861;48.808;9.006;2022-10-26T16:06:00;97612.34;;;21.81;62.16
41703;BME280;861;48.808;9.006;2022-10-26T16:08:30;97612.13;;;21.88;61.17